Time;durP1;ratioP1;P1;durP2;ratioP2;P2;SDS_P1;SDS_P2;PMS_P1;PMS_P2;Temp;Humidity;BMP_temperature;BMP_pressure;BME280_temperature;BME280_humidity;BME280_pressure;Samples;Min_cycle;Max_cycle;Signal;HPM_P1;HPM_P2
2022/03/29 00:00:46;;;;;;;27.73;13.77;;;;;;;8.90;46.00;101550.44;2569971;23;20179;-63
2022/03/29 00:01:46;;;;;;;27.13;13.93;;;;;;;9.03;45.10;101568.16;2569747;23;20500;-63
2022/03/29 00:02:47;;;;;;;23.73;13.87;;;;;;;8.91;45.92;101571.38;2569828;23;20624;-63
2022/03/29 00:03:47;;;;;;;28.17;14.23;;;;;;;8.85;46.13;101561.91;2569552;23;20594;-63
2022/03/29 00:04:48;;;;;;;27.87;14.23;;;;;;;8.24;48.07;101460.16;2569804;23;20152;-63
2022/03/29 00:05:48;;;;;;;26.87;14.07;;;;;;;8.54;46.49;101514.97;2569825;23;20222;-64
2022/03/29 00:06:49;;;;;;;30.03;14.13;;;;;;;8.81;46.61;101561.13;2569925;23;20156;-63
2022/03/29 00:07:50;;;;;;;29.63;14.27;;;;;;;8.81;46.97;101554.81;2556627;23;20196;-63
2022/03/29 00:08:50;;;;;;;27.07;14.37;;;;;;;8.77;47.92;101559.56;2556617;23;20156;-63
2022/03/29 00:09:51;;;;;;;28.83;14.53;;;;;;;8.70;49.11;101557.59;2569967;23;20637;-63
2022/03/29 00:10:52;;;;;;;23.83;13.87;;;;;;;8.68;48.49;101553.63;2569636;23;20227;-64
2022/03/29 00:11:52;;;;;;;29.60;14.17;;;;;;;8.71;48.17;101555.63;2569555;23;20512;-63
2022/03/29 00:12:55;;;;;;;26.10;14.07;;;;;;;8.73;47.34;101554.03;2569828;23;20618;-63
2022/03/29 00:13:56;;;;;;;30.08;14.73;;;;;;;8.75;48.13;101557.19;2569692;23;20149;-63
2022/03/29 00:14:56;;;;;;;23.70;14.00;;;;;;;8.70;48.20;101540.19;2569771;23;20148;-63
2022/03/29 00:15:57;;;;;;;31.37;15.00;;;;;;;8.75;47.77;101550.84;2569910;23;20242;-63
2022/03/29 00:16:57;;;;;;;24.90;14.57;;;;;;;8.66;48.20;101547.72;2569753;23;20152;-63
2022/03/29 00:17:58;;;;;;;28.23;13.77;;;;;;;8.11;48.63;101452.66;2569838;23;20152;-63
2022/03/29 00:18:59;;;;;;;22.40;13.77;;;;;;;7.86;48.35;101416.00;2569834;23;20144;-63
2022/03/29 00:19:59;;;;;;;25.97;15.03;;;;;;;8.68;49.67;101543.38;2569796;23;20153;-63
2022/03/29 00:21:00;;;;;;;25.17;16.23;;;;;;;7.34;51.01;101350.56;2569688;23;20149;-63
2022/03/29 00:22:01;;;;;;;25.00;15.67;;;;;;;8.51;51.82;101532.34;2569444;23;20610;-63
2022/03/29 00:23:03;;;;;;;27.27;15.38;;;;;;;8.53;51.87;101539.06;2569779;23;20148;-63
2022/03/29 00:24:04;;;;;;;25.35;16.60;;;;;;;8.61;52.44;101545.38;2569593;23;20633;-63
2022/03/29 00:25:05;;;;;;;27.17;16.00;;;;;;;7.63;52.23;101393.53;2556322;23;20578;-63
2022/03/29 00:26:06;;;;;;;26.70;15.75;;;;;;;8.45;52.07;101529.19;2556777;23;20155;-63
2022/03/29 00:27:06;;;;;;;26.07;15.67;;;;;;;8.36;52.22;101514.97;2569630;23;20160;-63
2022/03/29 00:28:07;;;;;;;23.20;15.87;;;;;;;8.50;51.81;101534.31;2556556;23;20160;-63
2022/03/29 00:29:08;;;;;;;27.30;15.73;;;;;;;8.56;51.98;101541.00;2556667;23;20156;-63
2022/03/29 00:30:15;;;;;;;37.17;16.35;;;;;;;8.33;52.07;101485.41;2556447;23;20228;-63
2022/03/29 00:31:16;;;;;;;30.23;16.38;;;;;;;8.52;51.93;101522.88;2558004;23;20165;-63
2022/03/29 00:32:17;;;;;;;31.50;16.35;;;;;;;8.41;51.92;101520.09;2569471;23;20152;-63
2022/03/29 00:33:18;;;;;;;24.13;15.82;;;;;;;8.40;52.98;101521.31;2569667;23;20171;-63
2022/03/29 00:34:18;;;;;;;28.90;15.47;;;;;;;8.46;52.46;101528.00;2569505;23;20626;-63
2022/03/29 00:35:19;;;;;;;28.60;15.13;;;;;;;7.74;52.26;101411.66;2569771;23;20210;-63
2022/03/29 00:36:20;;;;;;;28.20;16.30;;;;;;;8.56;52.86;101520.91;2569977;23;20176;-63
2022/03/29 00:37:20;;;;;;;27.10;16.13;;;;;;;8.49;52.76;101510.66;2569664;23;20623;-63
2022/03/29 00:38:21;;;;;;;25.43;15.50;;;;;;;8.51;53.23;101519.31;2569915;23;20148;-63
2022/03/29 00:39:21;;;;;;;30.70;15.60;;;;;;;8.56;52.62;101513.38;2569847;23;20155;-63
2022/03/29 00:40:22;;;;;;;28.43;16.00;;;;;;;8.61;52.33;101514.97;2569786;23;20148;-63
2022/03/29 00:41:23;;;;;;;30.30;16.17;;;;;;;8.59;53.73;101507.06;2569740;23;20148;-63
2022/03/29 00:42:24;;;;;;;27.73;16.60;;;;;;;7.04;54.19;101286.75;2569530;23;20148;-63
2022/03/29 00:43:25;;;;;;;27.17;16.20;;;;;;;8.50;54.04;101511.44;2569624;23;20477;-63
2022/03/29 00:44:33;;;;;;;28.40;15.40;;;;;;;8.56;53.54;101510.63;2556300;23;20301;-63
2022/03/29 00:45:33;;;;;;;25.67;15.40;;;;;;;8.64;53.13;101511.41;2557855;23;20214;-63
2022/03/29 00:46:34;;;;;;;25.53;15.53;;;;;;;7.93;53.02;101391.16;2568939;23;20148;-63
2022/03/29 00:47:35;;;;;;;26.43;16.27;;;;;;;8.40;53.38;101488.16;2569043;23;20188;-63
2022/03/29 00:48:35;;;;;;;25.50;16.00;;;;;;;8.53;53.89;101510.63;2569685;23;20152;-63
2022/03/29 00:49:36;;;;;;;25.73;15.93;;;;;;;8.60;52.93;101516.13;2569807;23;20172;-63
2022/03/29 00:50:37;;;;;;;29.83;17.00;;;;;;;8.67;53.30;101497.56;2569639;23;20149;-63
2022/03/29 00:51:38;;;;;;;25.90;16.33;;;;;;;8.60;53.39;101503.13;2569824;23;20153;-63
2022/03/29 00:52:39;;;;;;;30.77;16.45;;;;;;;8.24;54.48;101490.53;2569382;23;20159;-63
2022/03/29 00:53:40;;;;;;;31.13;15.63;;;;;;;8.35;53.74;101510.66;2569421;23;20167;-63
2022/03/29 00:54:41;;;;;;;26.90;16.27;;;;;;;8.47;52.12;101503.94;2569822;23;20152;-63
2022/03/29 00:55:43;;;;;;;28.38;15.60;;;;;;;8.33;51.78;101474.38;2569672;23;20156;-63
2022/03/29 00:56:43;;;;;;;25.92;15.98;;;;;;;8.17;52.99;101470.41;2569732;23;20484;-63
2022/03/29 00:57:46;;;;;;;26.83;16.33;;;;;;;7.44;53.53;101380.13;2569745;23;20234;-63
2022/03/29 00:58:48;;;;;;;27.25;16.75;;;;;;;8.41;52.67;101505.53;2569766;23;20160;-63
2022/03/29 00:59:50;;;;;;;26.92;17.00;;;;;;;8.33;52.75;101481.84;2569759;23;20156;-63
2022/03/29 01:00:52;;;;;;;26.60;17.00;;;;;;;8.26;53.21;101495.69;2569708;23;20201;-63
2022/03/29 01:01:53;;;;;;;32.28;17.17;;;;;;;7.98;53.28;101468.03;2569298;23;20183;-63
2022/03/29 01:02:54;;;;;;;26.15;16.17;;;;;;;8.21;53.88;101498.84;2556462;23;20202;-63
2022/03/29 01:03:55;;;;;;;26.03;16.93;;;;;;;8.26;53.15;101490.16;2556297;23;20153;-63
2022/03/29 01:04:55;;;;;;;30.53;16.47;;;;;;;8.34;53.17;101488.94;2569665;23;20156;-63
2022/03/29 01:05:56;;;;;;;27.93;16.67;;;;;;;8.35;53.00;101482.25;2569997;23;20594;-63
2022/03/29 01:06:58;;;;;;;28.63;17.03;;;;;;;8.35;52.60;101494.06;2569559;23;20595;-63
2022/03/29 01:08:00;;;;;;;27.38;16.35;;;;;;;7.98;53.41;101418.34;2569820;23;20594;-63
2022/03/29 01:09:01;;;;;;;27.27;16.98;;;;;;;8.37;53.14;101477.91;2569581;23;20160;-63
2022/03/29 01:10:04;;;;;;;29.40;17.27;;;;;;;8.55;52.19;101483.38;2569748;23;20148;-63
2022/03/29 01:11:11;;;;;;;25.30;16.83;;;;;;;8.49;52.28;101480.25;2569585;23;20205;-63
2022/03/29 01:12:11;;;;;;;26.33;16.42;;;;;;;8.50;52.25;101483.81;2569370;23;20152;-63
2022/03/29 01:13:12;;;;;;;29.23;16.47;;;;;;;7.44;52.17;101309.19;2569769;23;20167;-63
2022/03/29 01:14:13;;;;;;;29.00;16.07;;;;;;;8.56;52.28;101483.00;2569491;23;20498;-63
2022/03/29 01:15:14;;;;;;;25.03;15.63;;;;;;;8.60;51.76;101480.22;2569542;23;20545;-63
2022/03/29 01:17:43;;;;;;;28.08;16.75;;;;;;;8.63;52.19;101469.19;2569747;23;20141;-63
2022/03/29 01:18:45;;;;;;;28.50;16.10;;;;;;;8.65;51.88;101469.56;2569884;23;20147;-63
2022/03/29 01:19:46;;;;;;;27.75;16.75;;;;;;;8.65;51.69;101474.28;2569529;23;20176;-64
2022/03/29 01:20:51;;;;;;;25.53;16.90;;;;;;;8.67;52.22;101471.94;2569759;23;20157;-63
2022/03/29 01:21:56;;;;;;;24.70;17.23;;;;;;;8.71;51.93;101467.19;2569509;23;20156;-63
2022/03/29 01:22:59;;;;;;;27.63;17.38;;;;;;;7.55;52.26;101279.66;2569583;23;20613;-63
2022/03/29 01:24:00;;;;;;;27.85;16.20;;;;;;;8.33;52.08;101404.53;2569368;23;20594;-63
2022/03/29 01:25:01;;;;;;;29.80;16.80;;;;;;;8.09;52.49;101364.72;2569572;23;20501;-63
2022/03/29 01:26:02;;;;;;;37.72;16.73;;;;;;;8.74;51.81;101460.84;2569834;23;20590;-63
2022/03/29 01:27:05;;;;;;;35.60;19.37;;;;;;;8.75;51.83;101457.69;2569423;23;20503;-63
2022/03/29 01:28:06;;;;;;;33.63;17.05;;;;;;;8.75;51.48;101449.41;2569783;23;20666;-63
2022/03/29 01:29:08;;;;;;;41.50;19.45;;;;;;;8.74;52.16;101449.78;2569515;23;20535;-63
2022/03/29 01:30:09;;;;;;;58.33;39.85;;;;;;;8.74;52.55;101452.56;2569758;23;20587;-63
2022/03/29 01:31:11;;;;;;;39.45;26.08;;;;;;;8.75;52.66;101451.38;2569482;23;20167;-64
2022/03/29 01:32:11;;;;;;;54.20;39.22;;;;;;;7.96;53.50;101346.22;2569425;23;20591;-63
2022/03/29 01:33:12;;;;;;;34.80;20.53;;;;;;;8.70;53.79;101447.03;2569590;23;20552;-63
2022/03/29 01:34:13;;;;;;;32.53;19.23;;;;;;;8.77;52.86;101441.47;2569332;23;20526;-63
2022/03/29 01:35:16;;;;;;;43.20;23.80;;;;;;;8.80;53.21;101437.94;2569582;23;20152;-63
2022/03/29 01:36:17;;;;;;;42.50;24.02;;;;;;;8.81;52.82;101445.03;2569690;23;20226;-63
2022/03/29 01:37:17;;;;;;;50.33;32.67;;;;;;;8.85;53.01;101439.47;2569751;23;20238;-63
2022/03/29 01:38:18;;;;;;;44.00;23.53;;;;;;;8.74;52.88;101420.19;2569689;23;20516;-63
2022/03/29 01:39:18;;;;;;;39.37;24.77;;;;;;;7.72;52.42;101253.22;2569745;23;20154;-63
2022/03/29 01:40:22;;;;;;;42.03;26.70;;;;;;;8.89;52.65;101431.97;2569779;23;20659;-63
2022/03/29 01:41:22;;;;;;;40.47;27.38;;;;;;;7.91;52.55;101274.84;2569711;23;20600;-63
2022/03/29 01:42:23;;;;;;;34.70;22.60;;;;;;;8.98;51.30;101435.09;2569406;23;20475;-63
2022/03/29 01:43:23;;;;;;;41.17;24.87;;;;;;;8.97;50.92;101428.00;2570075;23;20498;-63
2022/03/29 01:44:24;;;;;;;41.90;24.57;;;;;;;8.98;50.70;101435.88;2570183;23;20198;-63
2022/03/29 01:45:29;;;;;;;28.93;17.37;;;;;;;9.01;49.88;101435.06;2570245;23;20225;-63
2022/03/29 01:46:29;;;;;;;32.97;20.10;;;;;;;8.89;49.76;101418.94;2556925;23;20153;-63
2022/03/29 01:47:30;;;;;;;30.37;17.27;;;;;;;8.92;49.46;101433.94;2544659;23;20225;-63
2022/03/29 01:48:30;;;;;;;29.93;16.63;;;;;;;8.87;49.14;101434.34;2557247;23;20204;-63
2022/03/29 01:49:31;;;;;;;26.73;17.67;;;;;;;8.66;49.21;101404.81;2570338;23;20550;-63
2022/03/29 01:50:32;;;;;;;26.57;17.17;;;;;;;7.64;49.22;101252.44;2570276;23;20150;-63
2022/03/29 01:51:33;;;;;;;27.87;17.03;;;;;;;8.26;49.63;101366.66;2556951;23;20156;-63
2022/03/29 01:52:39;;;;;;;26.52;15.93;;;;;;;8.71;49.72;101445.84;2556836;23;20152;-63
2022/03/29 01:53:41;;;;;;;48.03;32.40;;;;;;;8.67;51.03;101427.72;2570081;23;20152;-63
2022/03/29 01:54:42;;;;;;;31.08;17.67;;;;;;;8.65;49.96;101430.06;2570414;23;20179;-63
2022/03/29 01:55:42;;;;;;;38.80;18.27;;;;;;;8.56;50.43;101415.91;2570333;23;20633;-63
2022/03/29 01:56:43;;;;;;;43.80;29.30;;;;;;;8.62;51.60;101428.13;2570436;23;20587;-63
2022/03/29 01:57:45;;;;;;;45.67;24.43;;;;;;;8.33;51.97;101410.06;2570376;23;20239;-63
2022/03/29 01:58:45;;;;;;;34.40;17.73;;;;;;;8.26;50.76;101376.94;2570236;23;20649;-63
2022/03/29 02:01:05;;;;;;;29.88;16.33;;;;;;;8.35;51.11;101399.41;2570318;23;20140;-63
2022/03/29 02:02:06;;;;;;;31.73;17.17;;;;;;;8.50;51.47;101423.03;2570160;23;20236;-63
2022/03/29 02:03:07;;;;;;;49.67;32.63;;;;;;;8.45;51.71;101426.97;2570272;23;20153;-63
2022/03/29 02:04:08;;;;;;;33.65;19.10;;;;;;;8.43;51.80;101423.84;2556899;23;20161;-64
2022/03/29 02:05:09;;;;;;;31.70;17.53;;;;;;;8.35;51.98;101410.47;2556804;23;20239;-63
2022/03/29 02:06:10;;;;;;;59.47;42.25;;;;;;;8.38;52.08;101421.50;2557236;23;20244;-63
2022/03/29 02:07:11;;;;;;;30.13;19.53;;;;;;;8.38;51.67;101421.50;2556953;23;20153;-63
2022/03/29 02:08:11;;;;;;;30.60;19.10;;;;;;;8.39;51.40;101416.72;2570492;23;20152;-63
2022/03/29 02:09:12;;;;;;;30.53;17.13;;;;;;;7.40;51.32;101253.28;2570215;23;20543;-63
2022/03/29 02:10:17;;;;;;;30.23;18.27;;;;;;;7.43;51.37;101271.78;2570462;23;20156;-63
2022/03/29 02:11:18;;;;;;;42.50;18.63;;;;;;;8.44;51.23;101406.06;2570033;23;20145;-63
2022/03/29 02:12:18;;;;;;;29.13;17.03;;;;;;;8.28;50.95;101388.34;2570074;23;20560;-63
2022/03/29 02:13:19;;;;;;;26.17;16.70;;;;;;;7.63;50.99;101283.97;2570354;23;20160;-63
2022/03/29 02:14:20;;;;;;;84.20;60.42;;;;;;;8.39;50.34;101408.44;2569964;23;20559;-63
2022/03/29 02:15:21;;;;;;;29.87;18.27;;;;;;;8.42;50.31;101408.47;2557040;23;20153;-63
2022/03/29 02:16:22;;;;;;;25.50;17.33;;;;;;;7.69;50.46;101296.19;2557198;23;20156;-63
2022/03/29 02:17:22;;;;;;;40.33;25.33;;;;;;;7.82;50.83;101316.66;2570029;23;20160;-63
2022/03/29 02:18:23;;;;;;;99.37;69.63;;;;;;;7.64;49.52;101287.53;2556940;23;20292;-63
2022/03/29 02:19:23;;;;;;;41.20;27.60;;;;;;;8.29;50.51;101399.00;2557295;23;20228;-63
2022/03/29 02:20:25;;;;;;;43.53;25.70;;;;;;;7.27;49.99;101230.03;2570267;23;20606;-63
2022/03/29 02:21:25;;;;;;;46.17;25.80;;;;;;;7.41;50.52;101260.38;2570166;23;20159;-63
2022/03/29 02:22:26;;;;;;;45.60;25.17;;;;;;;8.28;50.43;101402.97;2569771;23;20180;-63
2022/03/29 02:23:27;;;;;;;42.50;26.83;;;;;;;8.32;50.22;101400.19;2570049;23;20151;-63
2022/03/29 02:24:27;;;;;;;48.90;29.40;;;;;;;7.50;50.36;101288.34;2570286;23;20229;-63
2022/03/29 02:25:28;;;;;;;49.13;30.93;;;;;;;8.02;51.46;101374.97;2570268;23;20475;-63
2022/03/29 02:26:28;;;;;;;49.47;31.13;;;;;;;7.00;50.99;101226.13;2570263;23;20149;-63
2022/03/29 02:27:29;;;;;;;67.13;36.43;;;;;;;8.13;50.93;101395.88;2556903;23;20189;-63
2022/03/29 02:28:29;;;;;;;68.67;38.03;;;;;;;8.08;50.63;101385.22;2557113;23;20176;-63
2022/03/29 02:29:30;;;;;;;73.03;41.00;;;;;;;8.05;51.00;101401.78;2570220;23;20152;-63
2022/03/29 02:30:32;;;;;;;75.90;42.03;;;;;;;7.46;51.07;101311.56;2570099;23;20175;-63
2022/03/29 02:31:33;;;;;;;77.30;44.10;;;;;;;8.06;50.67;101403.38;2570250;23;20202;-63
2022/03/29 02:32:33;;;;;;;82.13;42.93;;;;;;;6.82;50.92;101197.78;2569858;23;20214;-63
2022/03/29 02:33:34;;;;;;;78.07;44.07;;;;;;;8.04;50.71;101394.72;2569947;23;20210;-63
2022/03/29 02:34:34;;;;;;;81.03;42.77;;;;;;;7.99;51.48;101400.63;2569991;23;20149;-63
2022/03/29 02:35:35;;;;;;;81.67;40.90;;;;;;;7.93;51.22;101383.66;2570337;23;20745;-63
2022/03/29 02:36:35;;;;;;;67.13;38.47;;;;;;;7.53;51.06;101317.09;2570360;23;20494;-63
2022/03/29 02:37:37;;;;;;;77.97;42.93;;;;;;;8.04;51.19;101394.72;2570146;23;20168;-63
2022/03/29 02:38:37;;;;;;;73.78;46.28;;;;;;;7.98;50.65;101387.97;2570296;23;20508;-64
2022/03/29 02:39:38;;;;;;;65.93;37.77;;;;;;;7.95;50.91;101394.31;2570216;23;20230;-63
2022/03/29 02:40:38;;;;;;;70.87;43.03;;;;;;;7.96;50.91;101395.88;2570082;23;20692;-63
2022/03/29 02:41:39;;;;;;;73.17;44.43;;;;;;;6.43;50.68;101160.38;2570190;23;20598;-63
2022/03/29 02:42:53;;;;;;;69.67;46.27;;;;;;;7.93;50.67;101380.91;2569680;23;20162;-63
2022/03/29 02:43:54;;;;;;;60.95;38.80;;;;;;;7.91;50.60;101391.56;2569703;23;20142;-63
2022/03/29 02:44:55;;;;;;;62.23;40.73;;;;;;;7.91;50.96;101394.31;2570036;23;20606;-63
2022/03/29 02:45:55;;;;;;;65.87;43.03;;;;;;;7.94;51.13;101387.22;2570269;23;20177;-63
2022/03/29 02:46:56;;;;;;;67.50;44.10;;;;;;;7.97;50.82;101395.50;2569995;23;20150;-63
2022/03/29 02:47:58;;;;;;;67.40;46.38;;;;;;;7.97;50.00;101380.91;2570173;23;20193;-63
2022/03/29 02:48:59;;;;;;;67.60;46.20;;;;;;;7.80;50.44;101357.66;2570038;23;20201;-63
2022/03/29 02:49:59;;;;;;;70.23;45.30;;;;;;;7.95;50.75;101384.03;2570222;23;20161;-64
2022/03/29 02:51:00;;;;;;;76.43;42.93;;;;;;;7.70;50.98;101382.50;2569861;23;20158;-63
2022/03/29 02:52:01;;;;;;;70.67;39.97;;;;;;;7.90;50.38;101380.91;2569969;23;20163;-63
2022/03/29 02:53:02;;;;;;;61.27;39.17;;;;;;;7.85;50.50;101392.34;2569815;23;20150;-63
2022/03/29 02:54:03;;;;;;;64.82;41.03;;;;;;;7.87;50.20;101393.53;2569745;23;20500;-63
2022/03/29 02:55:04;;;;;;;65.93;39.97;;;;;;;7.88;50.37;101389.59;2570103;23;20155;-63
2022/03/29 02:56:04;;;;;;;70.73;40.30;;;;;;;7.89;50.18;101382.09;2570173;23;20171;-63
2022/03/29 02:57:05;;;;;;;60.33;39.57;;;;;;;7.73;50.21;101376.97;2570070;23;20191;-63
2022/03/29 02:58:05;;;;;;;49.20;33.40;;;;;;;7.69;50.36;101375.41;2570217;23;20225;-63
2022/03/29 02:59:06;;;;;;;51.77;33.90;;;;;;;7.74;50.83;101384.06;2569906;23;20162;-63
2022/03/29 03:00:09;;;;;;;49.70;32.93;;;;;;;7.74;50.21;101400.63;2570361;23;20500;-63
2022/03/29 03:01:09;;;;;;;51.97;31.33;;;;;;;7.78;49.91;101386.81;2570026;23;20159;-63
2022/03/29 03:02:10;;;;;;;54.23;32.03;;;;;;;7.77;50.72;101379.72;2569688;23;20156;-63
2022/03/29 03:03:10;;;;;;;47.33;30.47;;;;;;;7.22;51.24;101312.38;2570019;23;20601;-63
2022/03/29 03:04:14;;;;;;;45.43;30.17;;;;;;;7.67;50.88;101377.75;2569800;23;20152;-63
2022/03/29 03:05:16;;;;;;;48.92;32.83;;;;;;;7.07;50.51;101286.75;2569868;23;20146;-63
2022/03/29 03:06:17;;;;;;;53.35;33.00;;;;;;;7.22;50.77;101312.38;2570243;23;20153;-63
2022/03/29 03:07:17;;;;;;;50.50;32.13;;;;;;;7.64;50.94;101373.81;2569912;23;20588;-63
2022/03/29 03:08:18;;;;;;;55.77;33.27;;;;;;;7.61;50.92;101373.81;2570109;23;20229;-63
2022/03/29 03:09:18;;;;;;;60.73;32.90;;;;;;;7.62;51.25;101378.16;2570042;23;20150;-63
2022/03/29 03:10:19;;;;;;;55.37;33.60;;;;;;;6.54;50.99;101203.25;2570169;23;20155;-63
2022/03/29 03:11:19;;;;;;;66.93;36.33;;;;;;;7.63;50.61;101377.00;2570073;23;20557;-63
2022/03/29 03:12:20;;;;;;;72.37;36.87;;;;;;;7.63;50.98;101374.22;2569730;23;20151;-64
2022/03/29 03:13:20;;;;;;;58.80;32.23;;;;;;;7.52;50.71;101354.13;2570157;23;20200;-63
2022/03/29 03:14:21;;;;;;;52.13;33.80;;;;;;;7.69;50.29;101375.41;2569719;23;20446;-63
2022/03/29 03:15:24;;;;;;;56.23;33.93;;;;;;;7.61;50.03;101358.06;2570256;23;20582;-63
2022/03/29 03:16:26;;;;;;;45.28;32.58;;;;;;;7.70;50.85;101371.47;2569929;23;20183;-63
2022/03/29 03:17:26;;;;;;;49.03;31.77;;;;;;;7.49;50.43;101336.38;2570143;23;20200;-63
2022/03/29 03:18:27;;;;;;;52.67;34.13;;;;;;;7.68;49.80;101371.84;2570084;23;20204;-63
2022/03/29 03:19:27;;;;;;;57.03;37.27;;;;;;;7.66;50.45;101370.66;2569987;23;20153;-63
2022/03/29 03:20:29;;;;;;;57.67;36.20;;;;;;;7.65;50.62;101371.84;2570027;23;20598;-63
2022/03/29 03:21:30;;;;;;;56.00;34.78;;;;;;;7.67;51.01;101375.78;2556754;23;20155;-63
2022/03/29 03:22:31;;;;;;;56.03;31.37;;;;;;;7.00;50.12;101256.44;2556354;23;20151;-63
2022/03/29 03:23:32;;;;;;;52.70;29.75;;;;;;;7.60;50.10;101359.25;2569720;23;20155;-63
2022/03/29 03:24:32;;;;;;;57.33;30.23;;;;;;;7.67;50.45;101372.25;2556402;23;20162;-63
2022/03/29 03:25:33;;;;;;;54.33;31.37;;;;;;;7.67;50.77;101378.56;2556925;23;20207;-63
2022/03/29 03:26:33;;;;;;;58.77;29.73;;;;;;;7.65;50.60;101366.34;2556934;23;20306;-63
2022/03/29 03:27:34;;;;;;;51.97;29.20;;;;;;;6.76;50.78;101240.66;2556738;23;20677;-63
2022/03/29 03:28:35;;;;;;;55.97;29.53;;;;;;;7.44;50.73;101350.56;2570062;23;20537;-63
2022/03/29 03:29:35;;;;;;;58.57;27.20;;;;;;;7.52;50.71;101365.16;2570105;23;20211;-63
2022/03/29 03:30:36;;;;;;;63.47;28.83;;;;;;;7.52;50.80;101368.69;2569750;23;20151;-63
2022/03/29 03:31:36;;;;;;;55.17;26.73;;;;;;;7.52;50.47;101362.38;2570043;23;20162;-63
2022/03/29 03:32:37;;;;;;;41.43;24.00;;;;;;;6.12;50.29;101166.59;2569600;23;20181;-63
2022/03/29 03:33:38;;;;;;;41.60;22.15;;;;;;;7.29;50.78;101340.72;2569765;23;20559;-63
2022/03/29 03:34:39;;;;;;;46.80;22.67;;;;;;;6.42;50.63;101213.84;2570086;23;20157;-63
2022/03/29 03:35:40;;;;;;;34.58;21.85;;;;;;;7.36;50.89;101360.03;2570066;23;20547;-63
2022/03/29 03:36:40;;;;;;;37.93;22.10;;;;;;;7.37;50.86;101361.59;2569972;23;20181;-63
2022/03/29 03:37:41;;;;;;;35.03;21.33;;;;;;;7.38;50.59;101354.13;2570060;23;20222;-63
2022/03/29 03:38:42;;;;;;;33.83;20.70;;;;;;;7.39;50.99;101359.22;2569941;23;20161;-63
2022/03/29 03:39:42;;;;;;;30.47;18.80;;;;;;;7.40;50.76;101351.75;2570004;23;20228;-64
2022/03/29 03:40:43;;;;;;;30.63;19.63;;;;;;;7.38;50.92;101354.91;2556717;23;20198;-63
2022/03/29 03:41:43;;;;;;;31.90;19.00;;;;;;;7.31;50.89;101346.63;2556510;23;20165;-63
2022/03/29 03:42:44;;;;;;;32.07;17.60;;;;;;;6.42;50.32;101211.88;2569806;23;20161;-63
2022/03/29 03:43:45;;;;;;;35.43;18.00;;;;;;;7.31;50.92;101349.41;2569552;23;20164;-63
2022/03/29 03:44:45;;;;;;;32.13;17.20;;;;;;;7.32;50.22;101350.97;2569698;23;20198;-63
2022/03/29 03:45:46;;;;;;;26.73;16.03;;;;;;;7.29;50.67;101348.97;2569950;23;20561;-63
2022/03/29 03:46:46;;;;;;;47.83;31.63;;;;;;;7.21;50.85;101341.91;2569936;23;20589;-63
2022/03/29 03:47:47;;;;;;;63.77;46.13;;;;;;;7.13;51.05;101351.31;2569836;23;20645;-63
2022/03/29 03:48:47;;;;;;;72.40;52.90;;;;;;;7.17;51.52;101348.59;2569986;23;20701;-63
2022/03/29 03:49:48;;;;;;;60.37;43.57;;;;;;;6.78;51.16;101276.09;2569969;23;20234;-63
2022/03/29 03:50:48;;;;;;;45.17;30.93;;;;;;;7.26;51.32;101346.22;2569625;23;20152;-63
2022/03/29 03:51:49;;;;;;;60.97;43.50;;;;;;;7.25;50.99;101353.72;2569510;23;20162;-63
2022/03/29 03:52:51;;;;;;;69.90;48.90;;;;;;;7.14;51.21;101322.59;2569792;23;20155;-63
2022/03/29 03:53:51;;;;;;;69.72;51.00;;;;;;;7.35;51.18;101352.16;2569603;23;20212;-63
2022/03/29 03:54:54;;;;;;;61.57;42.93;;;;;;;7.33;51.29;101351.75;2569779;23;20149;-63
2022/03/29 03:55:54;;;;;;;87.10;60.63;;;;;;;7.21;51.34;101336.38;2569823;23;20162;-63
2022/03/29 03:56:55;;;;;;;65.60;45.23;;;;;;;7.28;50.73;101336.38;2569850;23;20161;-63
2022/03/29 03:57:56;;;;;;;56.17;41.37;;;;;;;7.31;51.00;101332.84;2570002;23;20181;-63
2022/03/29 03:58:56;;;;;;;66.60;42.03;;;;;;;7.46;50.60;101350.97;2569688;23;20551;-63
2022/03/29 03:59:57;;;;;;;60.53;40.60;;;;;;;6.36;50.72;101174.13;2570041;23;20179;-63
2022/03/29 04:00:57;;;;;;;62.13;41.37;;;;;;;7.54;50.77;101343.50;2569829;23;20151;-63
2022/03/29 04:01:58;;;;;;;61.30;40.33;;;;;;;7.52;50.50;101341.13;2569643;23;20149;-63
2022/03/29 04:03:01;;;;;;;69.40;43.43;;;;;;;6.95;50.63;101247.75;2569831;23;20155;-63
2022/03/29 04:04:02;;;;;;;77.68;57.90;;;;;;;7.57;50.36;101337.16;2569622;23;20466;-63
2022/03/29 04:05:02;;;;;;;88.87;57.17;;;;;;;6.66;50.51;101196.59;2569506;23;20177;-64
2022/03/29 04:06:03;;;;;;;83.90;55.50;;;;;;;7.60;50.66;101342.72;2569674;23;20153;-63
2022/03/29 04:07:05;;;;;;;77.80;49.58;;;;;;;7.61;50.91;101336.00;2569722;23;20286;-63
2022/03/29 04:08:05;;;;;;;93.40;49.78;;;;;;;7.65;50.50;101336.81;2569862;23;20217;-63
2022/03/29 04:09:06;;;;;;;89.47;50.17;;;;;;;7.52;51.08;101318.25;2569804;23;20272;-63
2022/03/29 04:10:08;;;;;;;81.90;53.03;;;;;;;7.71;50.25;101331.66;2570143;23;20541;-63
2022/03/29 04:11:08;;;;;;;84.78;53.40;;;;;;;7.73;50.73;101332.03;2556515;23;20289;-63
2022/03/29 04:12:09;;;;;;;75.20;51.07;;;;;;;7.72;50.57;101330.47;2556567;23;20163;-63
2022/03/29 04:13:10;;;;;;;82.63;55.70;;;;;;;7.50;50.37;101293.06;2569957;23;20154;-63
2022/03/29 04:14:11;;;;;;;81.90;57.73;;;;;;;7.61;49.93;101322.22;2569636;23;20151;-63
2022/03/29 04:15:12;;;;;;;78.77;58.10;;;;;;;7.64;50.10;101313.13;2569857;23;20597;-63
2022/03/29 04:16:12;;;;;;;84.22;58.60;;;;;;;6.82;50.07;101185.97;2569967;23;20481;-63
2022/03/29 04:17:13;;;;;;;81.90;57.73;;;;;;;7.77;50.26;101332.81;2569821;23;20221;-63
2022/03/29 04:18:14;;;;;;;79.23;55.30;;;;;;;7.77;52.15;101338.34;2569939;23;20504;-63
2022/03/29 04:19:14;;;;;;;79.90;56.67;;;;;;;7.80;50.98;101341.09;2569779;23;20153;-63
2022/03/29 04:20:15;;;;;;;82.17;54.20;;;;;;;6.51;50.86;101131.66;2569910;23;20226;-63
2022/03/29 04:21:15;;;;;;;76.93;51.60;;;;;;;7.81;50.74;101339.94;2569707;23;20620;-63
2022/03/29 04:22:18;;;;;;;86.00;54.07;;;;;;;7.79;50.61;101342.28;2569793;23;20155;-63
2022/03/29 04:23:19;;;;;;;71.80;50.50;;;;;;;7.81;50.85;101344.66;2569782;23;20539;-63
2022/03/29 04:24:20;;;;;;;76.25;51.67;;;;;;;7.75;50.09;101332.44;2569991;23;20155;-63
2022/03/29 04:25:21;;;;;;;77.00;55.83;;;;;;;7.84;50.50;101354.91;2569614;23;20174;-63
2022/03/29 04:26:21;;;;;;;79.20;55.10;;;;;;;7.84;50.81;101347.41;2569894;23;20150;-63
2022/03/29 04:27:22;;;;;;;82.57;52.47;;;;;;;6.87;50.58;101189.13;2569677;23;20225;-63
2022/03/29 04:28:22;;;;;;;82.67;51.87;;;;;;;7.87;51.17;101348.56;2569988;23;20156;-63
2022/03/29 04:29:23;;;;;;;78.37;51.53;;;;;;;7.89;51.07;101347.00;2556645;23;20151;-63
2022/03/29 04:30:24;;;;;;;78.20;51.80;;;;;;;7.87;50.94;101354.91;2556648;23;20154;-63
2022/03/29 04:31:24;;;;;;;82.40;51.80;;;;;;;7.83;50.96;101339.50;2569820;23;20148;-63
2022/03/29 04:32:25;;;;;;;87.37;55.63;;;;;;;7.92;50.67;101351.75;2569412;23;20145;-63
2022/03/29 04:33:26;;;;;;;82.77;55.27;;;;;;;6.52;50.57;101128.50;2569448;23;20161;-63
2022/03/29 04:34:26;;;;;;;87.00;57.85;;;;;;;7.96;50.76;101351.72;2556236;23;20215;-64
2022/03/29 04:35:27;;;;;;;88.47;57.87;;;;;;;7.99;50.19;101353.72;2556164;23;20785;-63
2022/03/29 04:36:28;;;;;;;85.37;55.87;;;;;;;8.04;49.87;101353.31;2569437;23;20167;-63
2022/03/29 04:37:28;;;;;;;99.77;57.20;;;;;;;8.05;50.38;101350.13;2569520;23;20221;-63
2022/03/29 04:38:29;;;;;;;107.20;59.67;;;;;;;7.76;50.10;101303.66;2569686;23;20175;-63
2022/03/29 04:39:32;;;;;;;99.93;58.67;;;;;;;7.60;49.86;101278.47;2569349;23;20587;-63
2022/03/29 04:40:33;;;;;;;92.75;56.70;;;;;;;8.04;50.42;101348.56;2569486;23;20586;-63
2022/03/29 04:41:34;;;;;;;89.00;55.40;;;;;;;8.04;50.70;101356.06;2569617;23;20463;-64
2022/03/29 04:42:48;;;;;;;87.13;55.10;;;;;;;8.06;50.74;101353.69;2568801;23;20613;-64
2022/03/29 04:43:48;;;;;;;100.75;53.30;;;;;;;8.09;50.33;101352.91;2569118;23;20148;-63